sensor_id;sensor_type;location;lat;lon;timestamp;P1;durP1;ratioP1;P2;durP2;ratioP2
46322;SDS011;32044;52.386;13.278;2023-07-08T00:00:56;5.57;;;4.43;;
46322;SDS011;32044;52.386;13.278;2023-07-08T00:03:24;5.63;;;4.40;;
46322;SDS011;32044;52.386;13.278;2023-07-08T00:05:53;5.22;;;4.45;;
46322;SDS011;32044;52.386;13.278;2023-07-08T00:08:22;10.02;;;4.78;;
46322;SDS011;32044;52.386;13.278;2023-07-08T00:10:50;8.00;;;5.20;;
46322;SDS011;32044;52.386;13.278;2023-07-08T00:13:18;6.80;;;5.30;;
46322;SDS011;32044;52.386;13.278;2023-07-08T00:15:47;7.43;;;5.13;;
46322;SDS011;32044;52.386;13.278;2023-07-08T00:18:16;7.65;;;5.68;;
46322;SDS011;32044;52.386;13.278;2023-07-08T00:20:46;7.50;;;4.72;;
46322;SDS011;32044;52.386;13.278;2023-07-08T00:23:15;7.15;;;4.65;;
46322;SDS011;32044;52.386;13.278;2023-07-08T00:25:42;5.65;;;4.18;;
46322;SDS011;32044;52.386;13.278;2023-07-08T00:28:10;6.47;;;4.60;;
46322;SDS011;32044;52.386;13.278;2023-07-08T00:30:39;4.93;;;4.00;;
46322;SDS011;32044;52.386;13.278;2023-07-08T00:33:09;5.85;;;4.82;;
46322;SDS011;32044;52.386;13.278;2023-07-08T00:35:37;6.80;;;5.15;;
46322;SDS011;32044;52.386;13.278;2023-07-08T00:38:10;5.50;;;4.63;;
46322;SDS011;32044;52.386;13.278;2023-07-08T00:40:48;5.72;;;4.78;;
46322;SDS011;32044;52.386;13.278;2023-07-08T00:43:17;7.18;;;4.93;;
46322;SDS011;32044;52.386;13.278;2023-07-08T00:45:46;5.20;;;4.40;;
46322;SDS011;32044;52.386;13.278;2023-07-08T00:48:30;5.40;;;4.60;;
46322;SDS011;32044;52.386;13.278;2023-07-08T00:51:01;6.55;;;5.10;;
46322;SDS011;32044;52.386;13.278;2023-07-08T00:53:31;6.65;;;5.13;;
46322;SDS011;32044;52.386;13.278;2023-07-08T00:56:00;5.47;;;4.80;;
46322;SDS011;32044;52.386;13.278;2023-07-08T00:58:30;7.72;;;5.20;;
46322;SDS011;32044;52.386;13.278;2023-07-08T01:01:00;8.20;;;5.13;;
46322;SDS011;32044;52.386;13.278;2023-07-08T01:03:30;10.80;;;5.32;;
46322;SDS011;32044;52.386;13.278;2023-07-08T01:05:59;6.93;;;5.88;;
46322;SDS011;32044;52.386;13.278;2023-07-08T01:08:27;6.68;;;4.93;;
46322;SDS011;32044;52.386;13.278;2023-07-08T01:10:58;6.28;;;5.53;;
46322;SDS011;32044;52.386;13.278;2023-07-08T01:15:58;7.38;;;5.63;;
46322;SDS011;32044;52.386;13.278;2023-07-08T01:18:26;7.50;;;6.07;;
46322;SDS011;32044;52.386;13.278;2023-07-08T01:20:55;7.80;;;6.03;;
46322;SDS011;32044;52.386;13.278;2023-07-08T01:23:24;7.28;;;5.50;;
46322;SDS011;32044;52.386;13.278;2023-07-08T01:25:52;7.45;;;5.57;;
46322;SDS011;32044;52.386;13.278;2023-07-08T01:28:19;8.40;;;5.65;;
46322;SDS011;32044;52.386;13.278;2023-07-08T01:30:47;6.43;;;5.55;;
46322;SDS011;32044;52.386;13.278;2023-07-08T01:33:16;7.30;;;5.75;;
46322;SDS011;32044;52.386;13.278;2023-07-08T01:35:45;6.72;;;5.22;;
46322;SDS011;32044;52.386;13.278;2023-07-08T01:38:13;6.60;;;5.60;;
46322;SDS011;32044;52.386;13.278;2023-07-08T01:40:49;6.63;;;5.10;;
46322;SDS011;32044;52.386;13.278;2023-07-08T01:43:18;6.22;;;5.25;;
46322;SDS011;32044;52.386;13.278;2023-07-08T01:45:46;5.57;;;4.97;;
46322;SDS011;32044;52.386;13.278;2023-07-08T01:48:14;5.55;;;5.05;;
46322;SDS011;32044;52.386;13.278;2023-07-08T01:50:44;5.50;;;5.00;;
46322;SDS011;32044;52.386;13.278;2023-07-08T01:53:14;6.10;;;5.22;;
46322;SDS011;32044;52.386;13.278;2023-07-08T01:55:48;7.95;;;5.55;;
46322;SDS011;32044;52.386;13.278;2023-07-08T01:58:16;9.30;;;6.03;;
46322;SDS011;32044;52.386;13.278;2023-07-08T02:00:43;6.93;;;6.00;;
46322;SDS011;32044;52.386;13.278;2023-07-08T02:03:14;10.80;;;6.03;;
46322;SDS011;32044;52.386;13.278;2023-07-08T02:05:42;7.90;;;6.40;;
46322;SDS011;32044;52.386;13.278;2023-07-08T02:08:10;9.55;;;6.13;;
46322;SDS011;32044;52.386;13.278;2023-07-08T02:10:38;7.93;;;6.72;;
46322;SDS011;32044;52.386;13.278;2023-07-08T02:13:07;6.82;;;6.13;;
46322;SDS011;32044;52.386;13.278;2023-07-08T02:15:35;6.55;;;5.57;;
46322;SDS011;32044;52.386;13.278;2023-07-08T02:18:02;6.60;;;5.10;;
46322;SDS011;32044;52.386;13.278;2023-07-08T02:20:30;7.50;;;5.90;;
46322;SDS011;32044;52.386;13.278;2023-07-08T02:22:57;7.45;;;5.97;;
46322;SDS011;32044;52.386;13.278;2023-07-08T02:25:25;7.25;;;5.97;;
46322;SDS011;32044;52.386;13.278;2023-07-08T02:27:53;6.78;;;5.97;;
46322;SDS011;32044;52.386;13.278;2023-07-08T02:30:24;6.72;;;5.45;;
46322;SDS011;32044;52.386;13.278;2023-07-08T02:32:52;11.07;;;6.20;;
46322;SDS011;32044;52.386;13.278;2023-07-08T02:35:24;7.20;;;5.47;;
46322;SDS011;32044;52.386;13.278;2023-07-08T02:37:53;7.65;;;6.53;;
46322;SDS011;32044;52.386;13.278;2023-07-08T02:40:20;6.32;;;5.63;;
46322;SDS011;32044;52.386;13.278;2023-07-08T02:42:48;9.88;;;6.40;;
46322;SDS011;32044;52.386;13.278;2023-07-08T02:45:16;8.05;;;6.47;;
46322;SDS011;32044;52.386;13.278;2023-07-08T02:47:45;9.52;;;6.60;;
46322;SDS011;32044;52.386;13.278;2023-07-08T02:50:13;9.80;;;6.15;;
46322;SDS011;32044;52.386;13.278;2023-07-08T02:52:40;7.05;;;5.70;;
46322;SDS011;32044;52.386;13.278;2023-07-08T02:55:08;7.47;;;6.15;;
46322;SDS011;32044;52.386;13.278;2023-07-08T02:57:36;7.40;;;6.22;;
46322;SDS011;32044;52.386;13.278;2023-07-08T03:00:04;6.85;;;5.70;;
46322;SDS011;32044;52.386;13.278;2023-07-08T03:02:33;7.45;;;6.28;;
46322;SDS011;32044;52.386;13.278;2023-07-08T03:05:02;8.18;;;6.18;;
46322;SDS011;32044;52.386;13.278;2023-07-08T03:07:31;7.68;;;6.38;;
46322;SDS011;32044;52.386;13.278;2023-07-08T03:09:58;8.68;;;5.43;;
46322;SDS011;32044;52.386;13.278;2023-07-08T03:12:26;6.75;;;5.90;;
46322;SDS011;32044;52.386;13.278;2023-07-08T03:14:53;8.38;;;6.03;;
46322;SDS011;32044;52.386;13.278;2023-07-08T03:17:21;7.93;;;6.20;;
46322;SDS011;32044;52.386;13.278;2023-07-08T03:19:49;7.60;;;5.95;;
46322;SDS011;32044;52.386;13.278;2023-07-08T03:22:18;6.18;;;5.25;;
46322;SDS011;32044;52.386;13.278;2023-07-08T03:24:46;6.07;;;5.30;;
46322;SDS011;32044;52.386;13.278;2023-07-08T03:27:13;7.13;;;5.40;;
46322;SDS011;32044;52.386;13.278;2023-07-08T03:29:41;6.45;;;5.72;;
46322;SDS011;32044;52.386;13.278;2023-07-08T03:32:10;7.28;;;5.53;;
46322;SDS011;32044;52.386;13.278;2023-07-08T03:34:38;8.10;;;5.35;;
46322;SDS011;32044;52.386;13.278;2023-07-08T03:37:06;7.15;;;5.90;;
46322;SDS011;32044;52.386;13.278;2023-07-08T03:39:35;7.68;;;6.00;;
46322;SDS011;32044;52.386;13.278;2023-07-08T03:42:03;7.53;;;5.50;;
46322;SDS011;32044;52.386;13.278;2023-07-08T03:44:31;6.45;;;5.55;;
46322;SDS011;32044;52.386;13.278;2023-07-08T03:46:58;6.80;;;5.40;;
46322;SDS011;32044;52.386;13.278;2023-07-08T03:49:26;6.72;;;5.55;;
46322;SDS011;32044;52.386;13.278;2023-07-08T03:51:54;10.27;;;5.95;;
46322;SDS011;32044;52.386;13.278;2023-07-08T03:54:22;7.85;;;6.70;;
46322;SDS011;32044;52.386;13.278;2023-07-08T03:56:52;7.28;;;6.05;;
46322;SDS011;32044;52.386;13.278;2023-07-08T03:59:20;9.77;;;5.72;;
46322;SDS011;32044;52.386;13.278;2023-07-08T04:01:48;7.82;;;6.22;;
46322;SDS011;32044;52.386;13.278;2023-07-08T04:04:15;8.20;;;5.63;;
46322;SDS011;32044;52.386;13.278;2023-07-08T04:06:43;7.93;;;6.07;;
46322;SDS011;32044;52.386;13.278;2023-07-08T04:09:11;11.95;;;6.80;;
46322;SDS011;32044;52.386;13.278;2023-07-08T04:11:39;7.47;;;5.78;;
46322;SDS011;32044;52.386;13.278;2023-07-08T04:14:09;6.63;;;5.20;;
46322;SDS011;32044;52.386;13.278;2023-07-08T04:16:42;6.75;;;5.63;;
46322;SDS011;32044;52.386;13.278;2023-07-08T04:19:12;6.65;;;5.60;;
46322;SDS011;32044;52.386;13.278;2023-07-08T04:21:42;7.88;;;6.00;;
46322;SDS011;32044;52.386;13.278;2023-07-08T04:24:10;6.40;;;5.43;;
46322;SDS011;32044;52.386;13.278;2023-07-08T04:26:39;6.22;;;5.35;;
46322;SDS011;32044;52.386;13.278;2023-07-08T04:29:12;7.82;;;5.88;;
46322;SDS011;32044;52.386;13.278;2023-07-08T04:31:40;6.00;;;5.40;;
46322;SDS011;32044;52.386;13.278;2023-07-08T04:34:08;6.50;;;5.72;;
46322;SDS011;32044;52.386;13.278;2023-07-08T04:36:36;5.95;;;5.28;;
46322;SDS011;32044;52.386;13.278;2023-07-08T04:39:05;5.93;;;5.32;;
46322;SDS011;32044;52.386;13.278;2023-07-08T04:41:33;7.60;;;5.38;;
46322;SDS011;32044;52.386;13.278;2023-07-08T04:44:01;9.00;;;5.38;;
46322;SDS011;32044;52.386;13.278;2023-07-08T04:46:32;6.10;;;5.32;;
46322;SDS011;32044;52.386;13.278;2023-07-08T04:49:05;10.13;;;5.60;;
46322;SDS011;32044;52.386;13.278;2023-07-08T04:51:33;5.47;;;4.80;;
46322;SDS011;32044;52.386;13.278;2023-07-08T04:54:00;6.78;;;5.22;;
46322;SDS011;32044;52.386;13.278;2023-07-08T04:56:34;8.68;;;5.07;;
46322;SDS011;32044;52.386;13.278;2023-07-08T04:59:03;9.32;;;5.43;;
46322;SDS011;32044;52.386;13.278;2023-07-08T05:01:33;10.43;;;5.95;;
46322;SDS011;32044;52.386;13.278;2023-07-08T05:04:02;11.57;;;5.55;;
46322;SDS011;32044;52.386;13.278;2023-07-08T05:06:31;8.65;;;5.50;;
46322;SDS011;32044;52.386;13.278;2023-07-08T05:08:59;5.88;;;5.15;;
46322;SDS011;32044;52.386;13.278;2023-07-08T05:11:27;10.38;;;5.22;;
46322;SDS011;32044;52.386;13.278;2023-07-08T05:13:54;7.78;;;5.75;;
46322;SDS011;32044;52.386;13.278;2023-07-08T05:16:22;7.85;;;5.10;;
46322;SDS011;32044;52.386;13.278;2023-07-08T05:18:51;6.82;;;5.10;;
46322;SDS011;32044;52.386;13.278;2023-07-08T05:21:19;5.47;;;4.90;;
46322;SDS011;32044;52.386;13.278;2023-07-08T05:23:47;5.65;;;4.93;;
46322;SDS011;32044;52.386;13.278;2023-07-08T05:26:15;10.73;;;5.10;;
46322;SDS011;32044;52.386;13.278;2023-07-08T05:28:43;7.13;;;4.93;;
46322;SDS011;32044;52.386;13.278;2023-07-08T05:31:11;8.98;;;4.70;;
46322;SDS011;32044;52.386;13.278;2023-07-08T05:33:38;7.97;;;5.38;;
46322;SDS011;32044;52.386;13.278;2023-07-08T05:36:07;5.75;;;5.03;;
46322;SDS011;32044;52.386;13.278;2023-07-08T05:38:35;7.15;;;4.60;;
46322;SDS011;32044;52.386;13.278;2023-07-08T05:41:03;11.95;;;4.82;;
46322;SDS011;32044;52.386;13.278;2023-07-08T05:43:30;5.88;;;4.32;;
46322;SDS011;32044;52.386;13.278;2023-07-08T05:45:58;5.80;;;4.60;;
46322;SDS011;32044;52.386;13.278;2023-07-08T05:48:37;7.32;;;4.70;;
46322;SDS011;32044;52.386;13.278;2023-07-08T05:51:05;5.50;;;4.13;;
46322;SDS011;32044;52.386;13.278;2023-07-08T05:53:34;5.13;;;4.40;;
46322;SDS011;32044;52.386;13.278;2023-07-08T05:56:02;6.40;;;5.07;;
46322;SDS011;32044;52.386;13.278;2023-07-08T05:58:29;6.45;;;4.28;;
46322;SDS011;32044;52.386;13.278;2023-07-08T06:00:57;4.93;;;4.13;;
46322;SDS011;32044;52.386;13.278;2023-07-08T06:03:26;4.55;;;4.10;;
46322;SDS011;32044;52.386;13.278;2023-07-08T06:05:54;7.47;;;4.78;;
46322;SDS011;32044;52.386;13.278;2023-07-08T06:08:21;5.43;;;4.53;;
46322;SDS011;32044;52.386;13.278;2023-07-08T06:10:50;8.95;;;4.47;;
46322;SDS011;32044;52.386;13.278;2023-07-08T06:13:18;8.70;;;4.03;;
46322;SDS011;32044;52.386;13.278;2023-07-08T06:15:45;6.60;;;4.30;;
46322;SDS011;32044;52.386;13.278;2023-07-08T06:18:13;8.95;;;4.50;;
46322;SDS011;32044;52.386;13.278;2023-07-08T06:20:41;6.13;;;4.20;;
46322;SDS011;32044;52.386;13.278;2023-07-08T06:23:08;10.02;;;4.80;;
46322;SDS011;32044;52.386;13.278;2023-07-08T06:25:36;4.78;;;3.85;;
46322;SDS011;32044;52.386;13.278;2023-07-08T06:28:04;9.13;;;4.60;;
46322;SDS011;32044;52.386;13.278;2023-07-08T06:30:32;5.20;;;4.10;;
46322;SDS011;32044;52.386;13.278;2023-07-08T06:32:59;4.50;;;4.05;;
46322;SDS011;32044;52.386;13.278;2023-07-08T06:35:27;6.82;;;4.53;;
46322;SDS011;32044;52.386;13.278;2023-07-08T06:37:55;5.15;;;3.88;;
46322;SDS011;32044;52.386;13.278;2023-07-08T06:40:22;7.93;;;4.13;;
46322;SDS011;32044;52.386;13.278;2023-07-08T06:42:50;6.40;;;3.97;;
46322;SDS011;32044;52.386;13.278;2023-07-08T06:45:19;6.20;;;4.03;;
46322;SDS011;32044;52.386;13.278;2023-07-08T06:47:46;5.60;;;4.05;;
46322;SDS011;32044;52.386;13.278;2023-07-08T06:50:14;4.10;;;3.53;;
46322;SDS011;32044;52.386;13.278;2023-07-08T06:52:42;5.70;;;4.32;;
46322;SDS011;32044;52.386;13.278;2023-07-08T06:55:10;6.05;;;3.65;;
46322;SDS011;32044;52.386;13.278;2023-07-08T06:57:38;4.55;;;3.90;;
46322;SDS011;32044;52.386;13.278;2023-07-08T07:00:07;7.22;;;3.78;;
46322;SDS011;32044;52.386;13.278;2023-07-08T07:02:37;4.00;;;3.53;;
46322;SDS011;32044;52.386;13.278;2023-07-08T07:05:05;4.78;;;3.58;;
46322;SDS011;32044;52.386;13.278;2023-07-08T07:07:33;5.25;;;3.13;;
46322;SDS011;32044;52.386;13.278;2023-07-08T07:10:00;5.15;;;3.60;;
46322;SDS011;32044;52.386;13.278;2023-07-08T07:12:29;5.38;;;3.85;;
46322;SDS011;32044;52.386;13.278;2023-07-08T07:14:57;4.55;;;3.70;;
46322;SDS011;32044;52.386;13.278;2023-07-08T07:17:24;7.45;;;3.60;;
46322;SDS011;32044;52.386;13.278;2023-07-08T07:19:54;8.00;;;3.53;;
46322;SDS011;32044;52.386;13.278;2023-07-08T07:22:22;6.68;;;3.63;;
46322;SDS011;32044;52.386;13.278;2023-07-08T07:24:50;5.80;;;3.13;;
46322;SDS011;32044;52.386;13.278;2023-07-08T07:27:17;4.80;;;3.33;;
46322;SDS011;32044;52.386;13.278;2023-07-08T07:29:45;4.20;;;3.20;;
46322;SDS011;32044;52.386;13.278;2023-07-08T07:32:14;3.78;;;3.20;;
46322;SDS011;32044;52.386;13.278;2023-07-08T07:34:42;5.05;;;3.13;;
46322;SDS011;32044;52.386;13.278;2023-07-08T07:37:12;3.97;;;2.80;;
46322;SDS011;32044;52.386;13.278;2023-07-08T07:39:40;5.32;;;3.28;;
46322;SDS011;32044;52.386;13.278;2023-07-08T07:42:08;4.93;;;3.13;;
46322;SDS011;32044;52.386;13.278;2023-07-08T07:44:37;5.07;;;3.00;;
46322;SDS011;32044;52.386;13.278;2023-07-08T07:47:06;3.90;;;2.97;;
46322;SDS011;32044;52.386;13.278;2023-07-08T07:49:33;4.70;;;3.17;;
46322;SDS011;32044;52.386;13.278;2023-07-08T07:52:01;3.58;;;2.88;;
46322;SDS011;32044;52.386;13.278;2023-07-08T07:54:31;3.47;;;2.80;;
46322;SDS011;32044;52.386;13.278;2023-07-08T07:56:58;3.65;;;2.58;;
46322;SDS011;32044;52.386;13.278;2023-07-08T07:59:26;6.03;;;3.28;;
46322;SDS011;32044;52.386;13.278;2023-07-08T08:01:53;5.68;;;3.25;;
46322;SDS011;32044;52.386;13.278;2023-07-08T08:04:21;4.32;;;3.03;;
46322;SDS011;32044;52.386;13.278;2023-07-08T08:06:48;3.25;;;2.95;;
46322;SDS011;32044;52.386;13.278;2023-07-08T08:09:16;3.40;;;2.50;;
46322;SDS011;32044;52.386;13.278;2023-07-08T08:11:45;4.57;;;2.80;;
46322;SDS011;32044;52.386;13.278;2023-07-08T08:14:13;5.40;;;2.88;;
46322;SDS011;32044;52.386;13.278;2023-07-08T08:16:40;5.28;;;3.38;;
46322;SDS011;32044;52.386;13.278;2023-07-08T08:19:08;6.47;;;2.92;;
46322;SDS011;32044;52.386;13.278;2023-07-08T08:21:35;4.30;;;3.00;;
46322;SDS011;32044;52.386;13.278;2023-07-08T08:24:03;6.95;;;3.20;;
46322;SDS011;32044;52.386;13.278;2023-07-08T08:26:31;4.80;;;2.92;;
46322;SDS011;32044;52.386;13.278;2023-07-08T08:29:00;4.78;;;2.65;;
46322;SDS011;32044;52.386;13.278;2023-07-08T08:31:28;5.55;;;2.70;;
46322;SDS011;32044;52.386;13.278;2023-07-08T08:33:57;3.58;;;2.80;;
46322;SDS011;32044;52.386;13.278;2023-07-08T08:36:25;7.43;;;3.08;;
46322;SDS011;32044;52.386;13.278;2023-07-08T08:38:52;3.05;;;2.75;;
46322;SDS011;32044;52.386;13.278;2023-07-08T08:41:21;5.13;;;3.10;;
46322;SDS011;32044;52.386;13.278;2023-07-08T08:43:55;3.75;;;2.50;;
46322;SDS011;32044;52.386;13.278;2023-07-08T08:46:26;4.55;;;2.95;;
46322;SDS011;32044;52.386;13.278;2023-07-08T08:48:58;2.63;;;2.30;;
46322;SDS011;32044;52.386;13.278;2023-07-08T08:51:30;4.53;;;2.88;;
46322;SDS011;32044;52.386;13.278;2023-07-08T08:53:59;3.42;;;2.70;;
46322;SDS011;32044;52.386;13.278;2023-07-08T08:56:27;2.60;;;2.40;;
46322;SDS011;32044;52.386;13.278;2023-07-08T08:58:58;2.90;;;2.53;;
46322;SDS011;32044;52.386;13.278;2023-07-08T09:01:30;4.28;;;3.03;;
46322;SDS011;32044;52.386;13.278;2023-07-08T09:04:02;5.30;;;2.80;;
46322;SDS011;32044;52.386;13.278;2023-07-08T09:06:33;3.25;;;2.78;;
46322;SDS011;32044;52.386;13.278;2023-07-08T09:09:03;7.88;;;2.38;;
46322;SDS011;32044;52.386;13.278;2023-07-08T09:11:38;3.20;;;2.55;;
46322;SDS011;32044;52.386;13.278;2023-07-08T09:14:12;3.55;;;2.38;;
46322;SDS011;32044;52.386;13.278;2023-07-08T09:16:46;9.32;;;2.70;;
46322;SDS011;32044;52.386;13.278;2023-07-08T09:19:21;5.30;;;2.70;;
46322;SDS011;32044;52.386;13.278;2023-07-08T09:21:52;3.85;;;2.67;;
46322;SDS011;32044;52.386;13.278;2023-07-08T09:24:23;4.47;;;2.60;;
46322;SDS011;32044;52.386;13.278;2023-07-08T09:26:54;4.80;;;2.45;;
46322;SDS011;32044;52.386;13.278;2023-07-08T09:29:24;3.45;;;2.47;;
46322;SDS011;32044;52.386;13.278;2023-07-08T09:31:53;4.07;;;2.47;;
46322;SDS011;32044;52.386;13.278;2023-07-08T09:34:22;3.45;;;3.00;;
46322;SDS011;32044;52.386;13.278;2023-07-08T09:36:51;3.13;;;2.50;;
46322;SDS011;32044;52.386;13.278;2023-07-08T09:39:19;3.95;;;2.60;;
46322;SDS011;32044;52.386;13.278;2023-07-08T09:41:48;3.30;;;2.22;;
46322;SDS011;32044;52.386;13.278;2023-07-08T09:44:17;3.75;;;2.42;;
46322;SDS011;32044;52.386;13.278;2023-07-08T09:46:54;2.63;;;2.40;;
46322;SDS011;32044;52.386;13.278;2023-07-08T09:49:24;2.28;;;2.08;;
46322;SDS011;32044;52.386;13.278;2023-07-08T09:51:54;3.70;;;2.90;;
46322;SDS011;32044;52.386;13.278;2023-07-08T09:54:22;3.67;;;2.55;;
46322;SDS011;32044;52.386;13.278;2023-07-08T09:56:54;3.33;;;2.50;;
46322;SDS011;32044;52.386;13.278;2023-07-08T09:59:26;5.68;;;2.72;;
46322;SDS011;32044;52.386;13.278;2023-07-08T10:02:00;6.18;;;2.60;;
46322;SDS011;32044;52.386;13.278;2023-07-08T10:04:29;2.85;;;2.53;;
46322;SDS011;32044;52.386;13.278;2023-07-08T10:06:57;3.53;;;2.40;;
46322;SDS011;32044;52.386;13.278;2023-07-08T10:09:26;4.15;;;2.80;;
46322;SDS011;32044;52.386;13.278;2023-07-08T10:11:56;5.18;;;2.50;;
46322;SDS011;32044;52.386;13.278;2023-07-08T10:14:27;4.22;;;2.67;;
46322;SDS011;32044;52.386;13.278;2023-07-08T10:16:58;3.30;;;2.50;;
46322;SDS011;32044;52.386;13.278;2023-07-08T10:19:27;4.13;;;2.53;;
46322;SDS011;32044;52.386;13.278;2023-07-08T10:22:02;4.20;;;2.50;;
46322;SDS011;32044;52.386;13.278;2023-07-08T10:24:40;6.43;;;2.78;;
46322;SDS011;32044;52.386;13.278;2023-07-08T10:27:19;4.28;;;2.38;;
46322;SDS011;32044;52.386;13.278;2023-07-08T10:29:52;5.60;;;2.60;;
46322;SDS011;32044;52.386;13.278;2023-07-08T10:32:24;5.32;;;2.78;;
46322;SDS011;32044;52.386;13.278;2023-07-08T10:35:01;4.95;;;2.42;;
46322;SDS011;32044;52.386;13.278;2023-07-08T10:37:33;5.38;;;2.53;;
46322;SDS011;32044;52.386;13.278;2023-07-08T10:40:08;2.97;;;2.40;;
46322;SDS011;32044;52.386;13.278;2023-07-08T10:42:52;7.35;;;2.90;;
46322;SDS011;32044;52.386;13.278;2023-07-08T10:45:29;3.85;;;2.63;;
46322;SDS011;32044;52.386;13.278;2023-07-08T10:48:06;3.53;;;2.55;;
46322;SDS011;32044;52.386;13.278;2023-07-08T10:50:47;5.28;;;2.70;;
46322;SDS011;32044;52.386;13.278;2023-07-08T10:53:26;6.00;;;3.03;;
46322;SDS011;32044;52.386;13.278;2023-07-08T10:55:58;4.82;;;2.35;;
46322;SDS011;32044;52.386;13.278;2023-07-08T10:58:36;3.05;;;2.33;;
46322;SDS011;32044;52.386;13.278;2023-07-08T11:01:10;3.35;;;2.60;;
46322;SDS011;32044;52.386;13.278;2023-07-08T11:06:37;4.53;;;2.88;;
46322;SDS011;32044;52.386;13.278;2023-07-08T11:09:12;5.53;;;2.92;;
46322;SDS011;32044;52.386;13.278;2023-07-08T11:11:43;4.40;;;2.90;;
46322;SDS011;32044;52.386;13.278;2023-07-08T11:14:14;5.78;;;2.65;;
46322;SDS011;32044;52.386;13.278;2023-07-08T11:16:45;5.78;;;2.85;;
46322;SDS011;32044;52.386;13.278;2023-07-08T11:19:15;4.90;;;2.53;;
46322;SDS011;32044;52.386;13.278;2023-07-08T11:21:48;3.17;;;2.80;;
46322;SDS011;32044;52.386;13.278;2023-07-08T11:24:21;3.45;;;2.58;;
46322;SDS011;32044;52.386;13.278;2023-07-08T11:27:00;4.00;;;2.95;;
46322;SDS011;32044;52.386;13.278;2023-07-08T11:29:34;5.03;;;2.50;;
46322;SDS011;32044;52.386;13.278;2023-07-08T11:32:04;2.60;;;2.40;;
46322;SDS011;32044;52.386;13.278;2023-07-08T11:34:33;3.00;;;2.70;;
46322;SDS011;32044;52.386;13.278;2023-07-08T11:37:03;4.38;;;2.67;;
46322;SDS011;32044;52.386;13.278;2023-07-08T11:39:33;5.43;;;2.67;;
46322;SDS011;32044;52.386;13.278;2023-07-08T11:42:05;6.13;;;2.70;;
46322;SDS011;32044;52.386;13.278;2023-07-08T11:44:42;3.35;;;2.75;;
46322;SDS011;32044;52.386;13.278;2023-07-08T11:47:15;5.10;;;2.83;;
46322;SDS011;32044;52.386;13.278;2023-07-08T11:49:46;3.55;;;2.60;;
46322;SDS011;32044;52.386;13.278;2023-07-08T11:52:18;3.95;;;2.70;;
46322;SDS011;32044;52.386;13.278;2023-07-08T11:54:47;5.32;;;2.65;;
46322;SDS011;32044;52.386;13.278;2023-07-08T11:57:17;4.43;;;2.67;;
46322;SDS011;32044;52.386;13.278;2023-07-08T11:59:46;4.75;;;3.17;;
46322;SDS011;32044;52.386;13.278;2023-07-08T12:02:14;5.65;;;2.70;;
46322;SDS011;32044;52.386;13.278;2023-07-08T12:04:55;3.75;;;2.70;;
46322;SDS011;32044;52.386;13.278;2023-07-08T12:07:32;6.23;;;2.63;;
46322;SDS011;32044;52.386;13.278;2023-07-08T12:10:03;3.42;;;2.88;;
46322;SDS011;32044;52.386;13.278;2023-07-08T12:12:36;4.78;;;2.45;;
46322;SDS011;32044;52.386;13.278;2023-07-08T12:15:08;5.13;;;2.90;;
46322;SDS011;32044;52.386;13.278;2023-07-08T12:17:39;3.85;;;2.80;;
46322;SDS011;32044;52.386;13.278;2023-07-08T12:20:13;4.10;;;3.13;;
46322;SDS011;32044;52.386;13.278;2023-07-08T12:22:46;4.85;;;2.92;;
46322;SDS011;32044;52.386;13.278;2023-07-08T12:25:14;5.68;;;2.85;;
46322;SDS011;32044;52.386;13.278;2023-07-08T12:27:44;3.67;;;2.72;;
46322;SDS011;32044;52.386;13.278;2023-07-08T12:30:13;4.43;;;2.92;;
46322;SDS011;32044;52.386;13.278;2023-07-08T12:32:42;5.90;;;2.97;;
46322;SDS011;32044;52.386;13.278;2023-07-08T12:35:26;3.55;;;2.75;;
46322;SDS011;32044;52.386;13.278;2023-07-08T12:37:59;4.75;;;2.50;;
46322;SDS011;32044;52.386;13.278;2023-07-08T12:40:28;2.85;;;2.30;;
46322;SDS011;32044;52.386;13.278;2023-07-08T12:42:56;3.55;;;2.30;;
46322;SDS011;32044;52.386;13.278;2023-07-08T12:45:26;10.82;;;3.50;;
46322;SDS011;32044;52.386;13.278;2023-07-08T12:47:55;5.28;;;2.70;;
46322;SDS011;32044;52.386;13.278;2023-07-08T12:50:23;4.30;;;3.10;;
46322;SDS011;32044;52.386;13.278;2023-07-08T12:52:51;5.93;;;2.97;;
46322;SDS011;32044;52.386;13.278;2023-07-08T12:55:20;4.68;;;2.83;;
46322;SDS011;32044;52.386;13.278;2023-07-08T12:57:49;3.67;;;2.80;;
46322;SDS011;32044;52.386;13.278;2023-07-08T13:00:19;3.77;;;3.20;;
46322;SDS011;32044;52.386;13.278;2023-07-08T13:02:49;3.25;;;2.80;;
46322;SDS011;32044;52.386;13.278;2023-07-08T13:05:24;3.20;;;2.90;;
46322;SDS011;32044;52.386;13.278;2023-07-08T13:07:53;3.47;;;2.78;;
46322;SDS011;32044;52.386;13.278;2023-07-08T13:10:23;3.03;;;2.72;;
46322;SDS011;32044;52.386;13.278;2023-07-08T13:12:54;3.08;;;2.60;;
46322;SDS011;32044;52.386;13.278;2023-07-08T13:15:25;9.52;;;3.75;;
46322;SDS011;32044;52.386;13.278;2023-07-08T13:17:55;4.32;;;3.05;;
46322;SDS011;32044;52.386;13.278;2023-07-08T13:20:23;6.20;;;3.30;;
46322;SDS011;32044;52.386;13.278;2023-07-08T13:22:52;5.50;;;3.30;;
46322;SDS011;32044;52.386;13.278;2023-07-08T13:25:26;5.38;;;2.90;;
46322;SDS011;32044;52.386;13.278;2023-07-08T13:27:59;3.22;;;2.92;;
46322;SDS011;32044;52.386;13.278;2023-07-08T13:30:28;6.47;;;2.80;;
46322;SDS011;32044;52.386;13.278;2023-07-08T13:32:58;6.10;;;3.47;;
46322;SDS011;32044;52.386;13.278;2023-07-08T13:35:27;4.43;;;2.92;;
46322;SDS011;32044;52.386;13.278;2023-07-08T13:38:01;4.57;;;2.90;;
46322;SDS011;32044;52.386;13.278;2023-07-08T13:40:31;4.00;;;3.13;;
46322;SDS011;32044;52.386;13.278;2023-07-08T13:42:59;5.13;;;3.00;;
46322;SDS011;32044;52.386;13.278;2023-07-08T13:45:30;3.95;;;2.72;;
46322;SDS011;32044;52.386;13.278;2023-07-08T13:48:00;4.55;;;3.22;;
46322;SDS011;32044;52.386;13.278;2023-07-08T13:50:35;3.90;;;3.30;;
46322;SDS011;32044;52.386;13.278;2023-07-08T13:53:16;3.90;;;3.10;;
46322;SDS011;32044;52.386;13.278;2023-07-08T13:55:55;3.80;;;2.75;;
46322;SDS011;32044;52.386;13.278;2023-07-08T13:58:26;3.20;;;2.90;;
46322;SDS011;32044;52.386;13.278;2023-07-08T14:00:55;3.90;;;3.20;;
46322;SDS011;32044;52.386;13.278;2023-07-08T14:03:23;4.15;;;3.10;;
46322;SDS011;32044;52.386;13.278;2023-07-08T14:05:52;3.38;;;3.08;;
46322;SDS011;32044;52.386;13.278;2023-07-08T14:08:19;6.18;;;2.83;;
46322;SDS011;32044;52.386;13.278;2023-07-08T14:10:49;3.58;;;3.22;;
46322;SDS011;32044;52.386;13.278;2023-07-08T14:13:17;3.40;;;2.85;;
46322;SDS011;32044;52.386;13.278;2023-07-08T14:15:45;3.30;;;2.88;;
46322;SDS011;32044;52.386;13.278;2023-07-08T14:18:13;8.85;;;3.10;;
46322;SDS011;32044;52.386;13.278;2023-07-08T14:20:40;5.63;;;3.25;;
46322;SDS011;32044;52.386;13.278;2023-07-08T14:23:09;5.70;;;3.00;;
46322;SDS011;32044;52.386;13.278;2023-07-08T14:25:37;3.80;;;3.47;;
46322;SDS011;32044;52.386;13.278;2023-07-08T14:28:06;4.85;;;3.13;;
46322;SDS011;32044;52.386;13.278;2023-07-08T14:30:34;4.50;;;3.55;;
46322;SDS011;32044;52.386;13.278;2023-07-08T14:33:08;4.72;;;2.97;;
46322;SDS011;32044;52.386;13.278;2023-07-08T14:35:37;3.70;;;3.00;;
46322;SDS011;32044;52.386;13.278;2023-07-08T14:38:08;4.45;;;3.20;;
46322;SDS011;32044;52.386;13.278;2023-07-08T14:40:37;4.30;;;3.10;;
46322;SDS011;32044;52.386;13.278;2023-07-08T14:43:11;4.45;;;2.97;;
46322;SDS011;32044;52.386;13.278;2023-07-08T14:45:41;3.53;;;2.78;;
46322;SDS011;32044;52.386;13.278;2023-07-08T14:48:11;4.18;;;2.78;;
46322;SDS011;32044;52.386;13.278;2023-07-08T14:50:39;4.40;;;3.05;;
46322;SDS011;32044;52.386;13.278;2023-07-08T14:53:07;5.15;;;3.20;;